Time;durP1;ratioP1;P1;durP2;ratioP2;P2;SDS_P1;SDS_P2;PMS_P1;PMS_P2;Temp;Humidity;BMP_temperature;BMP_pressure;BME280_temperature;BME280_humidity;BME280_pressure;Samples;Min_cycle;Max_cycle;Signal;HPM_P1;HPM_P2
2022/09/10 00:06:59;;;;;;;1.37;0.25;;;;;;;14.06;100.00;97737.72;18292612;32;20086;-62
2022/09/10 00:17:04;;;;;;;5.87;0.50;;;;;;;14.11;100.00;97728.69;18293198;32;20069;-62
2022/09/10 00:27:06;;;;;;;0.20;0.10;;;;;;;14.11;100.00;97731.41;18303918;32;20058;-62
2022/09/10 00:37:09;;;;;;;1.10;0.47;;;;;;;14.11;100.00;97725.97;18443590;32;20067;-63
2022/09/10 00:47:20;;;;;;;0.50;0.30;;;;;;;14.17;100.00;97716.66;18302286;32;20127;-62
2022/09/10 00:57:25;;;;;;;0.52;0.20;;;;;;;14.23;100.00;97712.75;18301866;32;20058;-62
2022/09/10 01:07:29;;;;;;;2.80;0.40;;;;;;;14.31;100.00;97726.81;18301479;32;20066;-62
2022/09/10 01:17:35;;;;;;;;;;;;;;;14.42;100.00;97739.16;18464323;32;20452;-62
2022/09/10 01:27:40;;;;;;;1.23;0.28;;;;;;;14.52;100.00;97738.22;18495276;32;19944;-62
2022/09/10 01:37:53;;;;;;;1.40;0.40;;;;;;;14.60;100.00;97756.59;18501063;32;20175;-62
2022/09/10 01:48:19;;;;;;;1.45;0.40;;;;;;;14.53;100.00;97737.13;18500407;32;20041;-62
2022/09/10 01:58:42;;;;;;;4.40;0.50;;;;;;;14.32;100.00;97736.56;18499342;32;20041;-62
2022/09/10 02:08:47;;;;;;;1.12;0.20;;;;;;;14.13;100.00;97742.81;18499025;32;20061;-63
2022/09/10 02:18:50;;;;;;;1.85;0.30;;;;;;;14.02;100.00;97741.31;18498689;32;20136;-62
2022/09/10 02:28:53;;;;;;;0.75;0.22;;;;;;;13.98;100.00;97745.72;18497750;32;20108;-62
2022/09/10 02:38:55;;;;;;;1.48;0.50;;;;;;;13.97;100.00;97749.53;18497333;32;20037;-62
2022/09/10 02:48:58;;;;;;;4.65;0.32;;;;;;;14.00;100.00;97740.78;18496110;32;20105;-62
2022/09/10 02:59:00;;;;;;;1.58;0.35;;;;;;;14.04;100.00;97725.50;18496025;32;20107;-62
2022/09/10 03:09:02;;;;;;;4.47;0.40;;;;;;;14.02;100.00;97744.84;18495950;32;20053;-62
2022/09/10 03:19:05;;;;;;;0.73;0.30;;;;;;;14.02;100.00;97753.00;18474900;32;20449;-62
2022/09/10 03:29:07;;;;;;;0.30;0.10;;;;;;;14.05;100.00;97740.72;18495299;32;20054;-62
2022/09/10 03:39:09;;;;;;;0.32;0.25;;;;;;;14.06;100.00;97747.81;18494956;32;20053;-61
2022/09/10 03:49:12;;;;;;;1.85;0.32;;;;;;;14.14;100.00;97740.88;18494517;32;20473;-62
2022/09/10 03:59:14;;;;;;;0.47;0.25;;;;;;;14.12;100.00;97735.75;18504515;32;20468;-61
2022/09/10 04:09:17;;;;;;;1.95;0.50;;;;;;;14.13;100.00;97750.97;18506595;32;20097;-62
2022/09/10 04:19:19;;;;;;;0.20;0.10;;;;;;;14.14;100.00;97744.44;18505764;32;20048;-62
2022/09/10 04:29:22;;;;;;;1.80;0.40;;;;;;;14.14;100.00;97733.56;18505246;32;20049;-62
2022/09/10 04:39:24;;;;;;;0.55;0.25;;;;;;;14.06;100.00;97739.66;18505041;32;20076;-61
2022/09/10 04:49:27;;;;;;;3.03;0.40;;;;;;;14.04;100.00;97744.53;18504040;32;20088;-61
2022/09/10 04:59:30;;;;;;;1.87;0.20;;;;;;;13.99;100.00;97747.31;18503499;32;20079;-62
2022/09/10 05:09:33;;;;;;;2.50;0.43;;;;;;;13.97;100.00;97752.25;18501731;32;20060;-61
2022/09/10 05:19:35;;;;;;;1.87;0.17;;;;;;;13.96;100.00;97750.63;18363968;32;20062;-62
2022/09/10 05:29:38;;;;;;;0.70;0.30;;;;;;;14.10;100.00;97758.88;18363547;32;20107;-61
2022/09/10 05:39:40;;;;;;;1.45;0.30;;;;;;;14.19;100.00;97763.38;18363009;32;20091;-61
2022/09/10 05:49:45;;;;;;;0.47;0.20;;;;;;;14.27;100.00;97772.00;18382556;32;20335;-62
2022/09/10 05:59:48;;;;;;;0.60;0.40;;;;;;;14.36;100.00;97784.66;18499605;32;20049;-62
2022/09/10 06:09:50;;;;;;;0.93;0.32;;;;;;;14.46;100.00;97789.16;18498849;32;20061;-61
2022/09/10 06:19:53;;;;;;;1.70;0.43;;;;;;;14.66;100.00;97798.19;18484589;32;20071;-61
2022/09/10 06:29:55;;;;;;;1.02;0.30;;;;;;;14.75;100.00;97812.75;18497880;32;20091;-62
2022/09/10 06:39:58;;;;;;;0.68;0.30;;;;;;;14.95;100.00;97827.16;18497470;32;20464;-62
2022/09/10 06:50:01;;;;;;;2.45;0.52;;;;;;;15.15;100.00;97831.50;18496703;32;20073;-62
2022/09/10 07:00:04;;;;;;;3.83;0.63;;;;;;;15.36;100.00;97838.25;18496294;32;20342;-62
2022/09/10 07:10:07;;;;;;;0.90;0.50;;;;;;;15.64;100.00;97835.59;18456210;32;20050;-62
2022/09/10 07:20:10;;;;;;;1.80;0.45;;;;;;;15.73;100.00;97847.44;18495414;32;20053;-62
2022/09/10 07:30:12;;;;;;;2.00;0.57;;;;;;;15.75;100.00;97844.41;18499200;32;20072;-62
2022/09/10 07:40:15;;;;;;;1.12;0.40;;;;;;;15.70;100.00;97852.69;18494699;32;20048;-61
2022/09/10 07:50:18;;;;;;;1.17;0.40;;;;;;;15.78;100.00;97868.34;18507638;32;20060;-61
2022/09/10 08:00:20;;;;;;;0.93;0.30;;;;;;;15.99;100.00;97882.47;18441105;32;20080;-62
2022/09/10 08:10:23;;;;;;;6.90;0.70;;;;;;;16.11;100.00;97911.97;18440612;32;20057;-61
2022/09/10 08:20:25;;;;;;;2.62;0.47;;;;;;;16.08;100.00;97918.03;18441548;32;20073;-62
2022/09/10 08:30:30;;;;;;;2.12;0.55;;;;;;;15.77;100.00;97934.87;18438459;32;20061;-61
2022/09/10 08:40:33;;;;;;;1.52;0.45;;;;;;;15.52;100.00;97947.00;18438989;32;20057;-61
2022/09/10 08:50:48;;;;;;;1.08;0.57;;;;;;;15.40;100.00;97942.81;18438119;32;20095;-61
2022/09/10 09:00:56;;;;;;;2.10;0.47;;;;;;;15.53;100.00;97935.00;18498355;32;20040;-61
2022/09/10 09:11:28;;;;;;;2.72;0.70;;;;;;;15.73;100.00;97934.69;18488602;32;20057;-61
2022/09/10 09:21:53;;;;;;;1.37;0.37;;;;;;;16.07;100.00;97935.50;18502366;32;20049;-61
2022/09/10 09:32:02;;;;;;;1.37;0.45;;;;;;;16.30;100.00;97935.66;18487228;32;20065;-61
2022/09/10 09:42:22;;;;;;;1.98;0.40;;;;;;;16.68;100.00;97949.94;18501165;32;20048;-61
2022/09/10 09:52:28;;;;;;;1.70;0.55;;;;;;;17.08;100.00;97960.38;18499129;32;20079;-61
2022/09/10 10:02:36;;;;;;;3.25;0.75;;;;;;;17.26;100.00;97955.91;18499466;32;20080;-61
2022/09/10 10:12:47;;;;;;;0.98;0.35;;;;;;;17.23;90.67;97951.06;18498589;32;20061;-61
2022/09/10 10:22:49;;;;;;;3.22;0.40;;;;;;;17.21;96.81;97942.34;18498634;32;20093;-61
2022/09/10 10:32:57;;;;;;;2.05;0.50;;;;;;;17.39;91.34;97922.25;18497869;32;20093;-61
2022/09/10 10:43:15;;;;;;;3.70;0.65;;;;;;;17.72;85.74;97910.25;18483212;32;20099;-62
2022/09/10 10:53:33;;;;;;;3.80;0.82;;;;;;;17.97;80.81;97903.41;18496600;32;20049;-62
2022/09/10 11:03:36;;;;;;;1.23;0.57;;;;;;;18.26;82.35;97905.63;18495681;32;20057;-62
2022/09/10 11:13:38;;;;;;;1.17;0.47;;;;;;;18.57;79.54;97879.38;18495736;32;20065;-61
2022/09/10 11:23:44;;;;;;;2.97;0.50;;;;;;;19.04;82.43;97878.84;18481202;32;20057;-61
2022/09/10 11:34:14;;;;;;;5.25;0.68;;;;;;;19.16;83.09;97883.69;18488601;32;20428;-61
2022/09/10 11:44:35;;;;;;;1.23;0.45;;;;;;;19.74;76.39;97878.81;18480965;32;20060;-62
2022/09/10 11:54:39;;;;;;;2.35;0.73;;;;;;;21.09;69.64;97868.28;18495127;32;20061;-61
2022/09/10 12:04:49;;;;;;;3.12;0.40;;;;;;;20.68;65.29;97880.81;18494482;32;20057;-61
2022/09/10 12:14:52;;;;;;;2.12;0.50;;;;;;;19.80;78.43;97883.84;18497292;32;20530;-61
2022/09/10 12:25:03;;;;;;;1.30;0.40;;;;;;;19.56;82.17;97889.81;18491867;32;20049;-61
2022/09/10 12:35:34;;;;;;;1.60;0.40;;;;;;;19.86;78.78;97892.72;18505214;32;20113;-61
2022/09/10 12:46:07;;;;;;;1.62;0.30;;;;;;;19.95;74.19;97890.75;18504347;32;20049;-61
2022/09/10 12:56:44;;;;;;;1.40;0.20;;;;;;;19.87;76.92;97899.81;18503200;32;20045;-61
2022/09/10 13:06:47;;;;;;;1.55;0.50;;;;;;;19.42;69.82;97905.63;18488440;32;20048;-61
2022/09/10 13:16:49;;;;;;;0.87;0.40;;;;;;;19.06;77.16;97876.56;18488601;32;20077;-61
2022/09/10 13:27:21;;;;;;;2.17;0.40;;;;;;;19.22;77.70;97894.16;18501279;32;20098;-61
2022/09/10 13:37:36;;;;;;;1.77;0.57;;;;;;;19.10;76.65;97889.34;18501512;32;20057;-61
2022/09/10 13:47:46;;;;;;;2.15;0.20;;;;;;;19.03;76.92;97890.94;18486944;32;20076;-61
2022/09/10 13:57:53;;;;;;;0.47;0.15;;;;;;;18.67;75.22;97891.94;18500057;32;20053;-61
2022/09/10 14:08:10;;;;;;;2.03;0.43;;;;;;;18.53;80.24;97890.13;18499500;32;20108;-61
2022/09/10 14:18:13;;;;;;;0.43;0.20;;;;;;;19.06;80.26;97901.25;18478769;32;20123;-61
2022/09/10 14:28:15;;;;;;;3.30;0.30;;;;;;;19.56;77.63;97894.50;18498176;32;20057;-61
2022/09/10 14:38:25;;;;;;;0.35;0.20;;;;;;;19.65;77.03;97889.78;18483789;32;20049;-61
2022/09/10 14:48:31;;;;;;;0.60;0.25;;;;;;;19.48;75.12;97887.88;18359381;32;20115;-61
2022/09/10 14:58:34;;;;;;;2.28;0.10;;;;;;;19.36;78.87;97890.47;18346140;32;20088;-61
2022/09/10 15:08:40;;;;;;;0.57;0.20;;;;;;;19.15;77.68;97893.84;18358207;32;20116;-61
2022/09/10 15:18:48;;;;;;;1.25;0.43;;;;;;;18.74;80.87;97892.28;18417458;32;20102;-61
2022/09/10 15:28:51;;;;;;;2.53;0.50;;;;;;;18.19;79.79;97880.66;18357597;32;20095;-61
2022/09/10 15:38:54;;;;;;;11.30;5.77;;;;;;;18.01;84.99;97887.97;18344987;32;20104;-61
2022/09/10 15:49:01;;;;;;;18.47;11.43;;;;;;;17.95;87.37;97881.00;18358961;32;20077;-61
2022/09/10 15:59:11;;;;;;;;;;;;;;;17.80;87.96;97882.16;18473672;32;20049;-61
2022/09/10 16:09:14;;;;;;;6.55;3.25;;;;;;;17.59;88.20;97890.88;18292708;32;19969;-61
2022/09/10 16:19:16;;;;;;;2.67;1.17;;;;;;;17.38;89.39;97889.78;18304540;32;20101;-61
2022/09/10 16:29:19;;;;;;;1.35;0.82;;;;;;;17.15;91.79;97884.25;18304249;32;20090;-61
2022/09/10 16:39:22;;;;;;;1.40;0.60;;;;;;;17.00;93.13;97887.34;18462573;32;20108;-61
2022/09/10 16:49:26;;;;;;;1.85;0.47;;;;;;;16.91;94.41;97890.81;18504723;32;20161;-61
2022/09/10 16:59:28;;;;;;;1.87;0.73;;;;;;;16.95;97.23;97880.06;18482445;32;20357;-61
2022/09/10 17:09:31;;;;;;;2.22;0.60;;;;;;;16.87;98.83;97895.22;18301492;32;20460;-61
2022/09/10 17:19:33;;;;;;;1.37;0.70;;;;;;;16.68;99.38;97900.00;18288554;32;20086;-61
2022/09/10 17:29:37;;;;;;;4.18;0.57;;;;;;;16.45;100.00;97901.84;18300277;32;20175;-61
2022/09/10 17:39:40;;;;;;;;;;;;;;;16.24;100.00;97905.75;18329797;32;20062;-61
2022/09/10 17:49:43;;;;;;;4.82;0.85;;;;;;;16.09;100.00;97903.31;18487078;32;19998;-61
2022/09/10 17:59:45;;;;;;;1.20;0.47;;;;;;;15.96;100.00;97912.25;18500052;32;20093;-61
2022/09/10 18:09:48;;;;;;;1.25;0.40;;;;;;;15.81;100.00;97907.88;18499564;32;20117;-61
2022/09/10 18:19:50;;;;;;;5.18;0.20;;;;;;;15.69;100.00;97927.37;18499009;32;20426;-61
2022/09/10 18:29:53;;;;;;;3.47;0.50;;;;;;;15.61;100.00;97944.41;18498321;32;20119;-61
2022/09/10 18:39:58;;;;;;;0.60;0.30;;;;;;;15.57;100.00;97957.84;18497602;32;20413;-61
2022/09/10 18:50:01;;;;;;;1.05;0.37;;;;;;;15.53;100.00;97965.78;18490512;32;20104;-61
2022/09/10 19:00:04;;;;;;;1.30;0.50;;;;;;;15.51;100.00;97961.72;18457273;32;20053;-61
2022/09/10 19:10:07;;;;;;;0.62;0.40;;;;;;;15.46;100.00;97975.41;18481893;32;20057;-61
2022/09/10 19:20:10;;;;;;;0.87;0.40;;;;;;;15.39;100.00;97981.28;18482054;32;20105;-61
2022/09/10 19:30:13;;;;;;;1.42;0.60;;;;;;;15.40;100.00;97996.50;18494813;32;20063;-61
2022/09/10 19:40:16;;;;;;;3.22;0.62;;;;;;;15.31;100.00;97992.81;18495139;32;20433;-61
2022/09/10 19:50:19;;;;;;;1.55;0.60;;;;;;;15.23;100.00;98003.25;18495668;32;20045;-61
2022/09/10 20:00:24;;;;;;;4.87;0.50;;;;;;;15.19;100.00;98004.94;18494533;32;20049;-61
2022/09/10 20:10:52;;;;;;;4.05;0.52;;;;;;;15.10;100.00;98009.41;18494759;32;20342;-61
2022/09/10 20:20:56;;;;;;;0.22;0.20;;;;;;;15.05;100.00;97998.59;18480198;32;20429;-61
2022/09/10 20:30:59;;;;;;;0.77;0.47;;;;;;;14.98;100.00;98003.56;18494228;32;20105;-62
2022/09/10 20:41:02;;;;;;;1.77;0.35;;;;;;;14.96;100.00;98000.34;18495919;32;20048;-61
2022/09/10 20:51:04;;;;;;;0.82;0.40;;;;;;;14.91;100.00;98007.47;18504501;32;20065;-61
2022/09/10 21:01:20;;;;;;;0.43;0.22;;;;;;;14.81;100.00;98001.31;18503748;32;20387;-61
2022/09/10 21:11:25;;;;;;;0.50;0.30;;;;;;;14.66;100.00;98000.41;18503688;32;20064;-61
2022/09/10 21:21:29;;;;;;;2.42;0.32;;;;;;;14.61;100.00;98013.19;18502409;32;20330;-61
2022/09/10 21:31:32;;;;;;;1.08;0.32;;;;;;;14.53;100.00;98012.72;18501855;32;20079;-61
2022/09/10 21:41:38;;;;;;;1.12;0.30;;;;;;;14.32;100.00;98014.00;18501711;32;20091;-61
2022/09/10 21:51:41;;;;;;;0.40;0.20;;;;;;;14.23;100.00;98022.00;18500444;32;20369;-61
2022/09/10 22:01:45;;;;;;;0.73;0.30;;;;;;;14.20;100.00;98028.81;18499758;32;20067;-61
2022/09/10 22:11:50;;;;;;;0.80;0.40;;;;;;;14.26;100.00;98034.22;18485491;32;20426;-61
2022/09/10 22:21:54;;;;;;;0.52;0.25;;;;;;;14.26;100.00;98042.37;18499036;32;20053;-61
2022/09/10 22:31:57;;;;;;;1.02;0.40;;;;;;;14.32;100.00;98030.34;18359929;32;20119;-61
2022/09/10 22:41:59;;;;;;;0.52;0.40;;;;;;;14.28;100.00;98038.28;18360122;32;20423;-61
2022/09/10 22:52:02;;;;;;;1.48;0.62;;;;;;;14.13;100.00;98035.66;18232180;32;20080;-61
2022/09/10 23:02:05;;;;;;;0.80;0.40;;;;;;;13.99;100.00;98046.38;18249220;32;20122;-61
2022/09/10 23:12:08;;;;;;;2.08;0.50;;;;;;;14.00;100.00;98048.81;18230992;32;20074;-61
2022/09/10 23:22:10;;;;;;;1.58;0.40;;;;;;;14.04;100.00;98046.34;18318923;32;20120;-61
2022/09/10 23:32:12;;;;;;;3.33;0.43;;;;;;;14.07;100.00;98057.47;18357554;32;20065;-61
2022/09/10 23:42:15;;;;;;;0.90;0.50;;;;;;;14.11;100.00;98059.63;18377091;32;20456;-61
2022/09/10 23:52:18;;;;;;;3.72;0.50;;;;;;;14.17;100.00;98064.75;18494720;32;20057;-61
